createdAt,value
2019-04-03T00:02:10.516Z,6.90
2019-04-03T00:04:42.084Z,8.77
2019-04-03T00:07:13.757Z,7.50
2019-04-03T00:09:45.394Z,7.50
2019-04-03T00:12:16.997Z,8.43
2019-04-03T00:14:48.554Z,7.83
2019-04-03T00:17:20.189Z,8.00
2019-04-03T00:19:51.786Z,8.63
2019-04-03T00:22:23.363Z,8.73
2019-04-03T00:24:54.943Z,8.20
2019-04-03T00:27:26.554Z,6.70
2019-04-03T00:29:58.189Z,6.87
2019-04-03T00:32:29.745Z,8.80
2019-04-03T00:35:01.329Z,8.53
2019-04-03T00:37:33.024Z,11.20
2019-04-03T00:40:05.044Z,8.30
2019-04-03T00:42:36.628Z,8.03
2019-04-03T00:45:09.438Z,7.17
2019-04-03T00:47:41.053Z,8.40
2019-04-03T00:50:12.608Z,9.03
2019-04-03T00:52:44.311Z,11.00
2019-04-03T00:55:15.854Z,8.80
2019-04-03T00:57:47.493Z,9.43
2019-04-03T01:00:19.174Z,8.60
2019-04-03T01:02:50.826Z,9.47
2019-04-03T01:05:22.422Z,9.13
2019-04-03T01:07:54.153Z,11.50
2019-04-03T01:10:25.700Z,8.73
2019-04-03T01:12:57.284Z,8.97
2019-04-03T01:15:29.787Z,8.10
2019-04-03T01:18:04.634Z,9.03
2019-04-03T01:20:36.723Z,9.23
2019-04-03T01:23:08.336Z,8.97
2019-04-03T01:25:40.178Z,10.27
2019-04-03T01:28:12.002Z,9.07
2019-04-03T01:30:44.249Z,9.13
2019-04-03T01:33:16.716Z,9.17
2019-04-03T01:35:48.859Z,8.83
2019-04-03T01:38:20.431Z,9.30
2019-04-03T01:40:52.015Z,9.53
2019-04-03T01:43:23.778Z,10.33
2019-04-03T01:45:56.981Z,9.13
2019-04-03T01:48:28.926Z,9.03
2019-04-03T01:51:00.531Z,9.50
2019-04-03T01:53:32.761Z,9.77
2019-04-03T01:56:05.288Z,9.90
2019-04-03T01:58:36.984Z,9.90
2019-04-03T02:01:08.650Z,6.90
2019-04-03T02:03:41.691Z,5.93
2019-04-03T02:06:14.137Z,5.50
2019-04-03T02:08:45.705Z,4.93
2019-04-03T02:11:18.626Z,6.43
2019-04-03T02:13:51.351Z,6.60
2019-04-03T02:16:23.624Z,5.33
2019-04-03T02:18:55.971Z,7.70
2019-04-03T02:21:28.301Z,7.10
2019-04-03T02:24:01.255Z,5.80
2019-04-03T02:26:33.413Z,6.40
2019-04-03T02:29:06.644Z,5.43
2019-04-03T02:31:38.566Z,5.10
2019-04-03T02:34:10.106Z,6.70
2019-04-03T02:36:44.418Z,6.20
2019-04-03T02:39:14.952Z,6.83
2019-04-03T02:41:46.525Z,8.20
2019-04-03T02:44:19.802Z,9.30
2019-04-03T02:46:51.353Z,7.67
2019-04-03T02:49:23.014Z,6.93
2019-04-03T02:51:54.873Z,8.27
2019-04-03T02:54:34.828Z,7.80
2019-04-03T02:57:04.925Z,7.70
2019-04-03T02:59:36.565Z,8.97
2019-04-03T03:02:11.285Z,9.40
2019-04-03T03:04:41.690Z,8.40
2019-04-03T03:07:13.379Z,6.83
2019-04-03T03:09:47.569Z,9.20
2019-04-03T03:12:19.455Z,7.13
2019-04-03T03:14:51.441Z,10.10
2019-04-03T03:17:24.179Z,7.60
2019-04-03T03:19:57.034Z,7.17
2019-04-03T03:22:29.155Z,8.50
2019-04-03T03:25:01.353Z,8.80
2019-04-03T03:27:33.837Z,9.17
2019-04-03T03:30:28.961Z,8.97
2019-04-03T03:32:40.196Z,10.50
2019-04-03T03:35:16.600Z,10.00
2019-04-03T03:37:47.112Z,9.30
2019-04-03T03:40:18.772Z,9.43
2019-04-03T03:42:52.629Z,8.50
2019-04-03T03:45:24.222Z,8.37
2019-04-03T03:47:55.886Z,8.70
2019-04-03T03:50:27.983Z,11.53
2019-04-03T03:53:00.237Z,6.83
2019-04-03T03:55:31.922Z,7.87
2019-04-03T03:58:04.241Z,7.50
2019-04-03T04:00:35.965Z,7.03
2019-04-03T04:03:10.072Z,5.80
2019-04-03T04:05:41.136Z,8.37
2019-04-03T04:08:13.078Z,6.80
2019-04-03T04:10:45.155Z,6.90
2019-04-03T04:13:18.040Z,6.40
2019-04-03T04:15:49.769Z,5.70
2019-04-03T04:18:23.709Z,6.30
2019-04-03T04:20:54.949Z,5.90
2019-04-03T04:23:27.269Z,7.60
2019-04-03T04:25:59.016Z,6.00
2019-04-03T04:28:32.121Z,5.80
2019-04-03T04:31:03.902Z,6.40
2019-04-03T04:33:35.681Z,10.50
2019-04-03T04:36:07.355Z,6.30
2019-04-03T04:38:38.940Z,12.70
2019-04-03T04:41:10.551Z,6.17
2019-04-03T04:43:42.104Z,7.77
2019-04-03T04:46:14.065Z,7.03
2019-04-03T04:48:45.633Z,5.97
2019-04-03T04:51:17.211Z,6.80
2019-04-03T04:53:48.988Z,11.67
2019-04-03T04:56:21.045Z,11.80
2019-04-03T04:58:52.623Z,11.63
2019-04-03T05:01:24.270Z,8.40
2019-04-03T05:03:56.036Z,8.40
2019-04-03T05:06:29.604Z,7.97
2019-04-03T05:09:03.385Z,7.03
2019-04-03T05:11:34.303Z,6.87
2019-04-03T05:14:05.909Z,7.50
2019-04-03T05:16:37.492Z,6.83
2019-04-03T05:19:14.830Z,10.93
2019-04-03T05:21:42.397Z,7.00
2019-04-03T05:24:13.969Z,8.97
2019-04-03T05:26:45.641Z,7.07
2019-04-03T05:29:17.533Z,9.00
2019-04-03T05:31:49.061Z,7.10
2019-04-03T05:34:20.621Z,8.07
2019-04-03T05:36:52.173Z,7.93
2019-04-03T05:39:24.527Z,6.30
2019-04-03T05:41:58.508Z,7.00
2019-04-03T05:44:32.553Z,7.07
2019-04-03T05:47:02.893Z,6.87
2019-04-03T05:49:34.494Z,7.13
2019-04-03T05:52:06.074Z,8.67
2019-04-03T05:54:39.604Z,7.03
2019-04-03T05:57:11.891Z,7.70
2019-04-03T05:59:44.662Z,7.13
2019-04-03T06:02:20.030Z,7.40
2019-04-03T06:04:50.583Z,8.87
2019-04-03T06:07:22.192Z,10.10
2019-04-03T06:09:57.789Z,10.70
2019-04-03T06:12:27.047Z,10.67
2019-04-03T06:14:58.725Z,9.60
2019-04-03T06:17:30.320Z,9.90
2019-04-03T06:20:02.209Z,10.07
2019-04-03T06:22:33.749Z,9.27
2019-04-03T06:25:12.259Z,8.80
2019-04-03T06:27:43.022Z,9.17
2019-04-03T06:30:14.693Z,8.80
2019-04-03T06:32:46.256Z,8.70
2019-04-03T06:35:18.930Z,7.77
2019-04-03T06:37:52.508Z,9.10
2019-04-03T06:40:23.808Z,8.50
2019-04-03T06:42:55.385Z,7.27
2019-04-03T06:45:27.142Z,8.07
2019-04-03T06:47:58.725Z,8.93
2019-04-03T06:50:30.305Z,7.50
2019-04-03T06:53:01.854Z,7.37
2019-04-03T06:55:35.654Z,7.10
2019-04-03T06:58:06.807Z,8.67
2019-04-03T07:00:38.377Z,7.80
2019-04-03T07:03:09.981Z,6.70
2019-04-03T07:05:42.103Z,5.93
2019-04-03T07:08:13.710Z,6.07
2019-04-03T07:10:54.710Z,6.77
2019-04-03T07:13:20.478Z,6.00
2019-04-03T07:15:51.859Z,7.10
2019-04-03T07:18:23.755Z,9.43
2019-04-03T07:20:55.335Z,8.80
2019-04-03T07:23:29.947Z,8.33
2019-04-03T07:26:02.768Z,8.30
2019-04-03T07:28:34.479Z,8.33
2019-04-03T07:31:06.320Z,9.07
2019-04-03T07:33:37.953Z,8.73
2019-04-03T07:36:11.291Z,9.37
2019-04-03T07:38:42.833Z,10.37
2019-04-03T07:41:14.431Z,11.33
2019-04-03T07:43:45.998Z,10.17
2019-04-03T07:46:17.555Z,9.33
2019-04-03T07:48:49.344Z,9.17
2019-04-03T07:51:20.964Z,9.47
2019-04-03T07:53:53.693Z,10.03
2019-04-03T07:56:25.809Z,14.80
2019-04-03T07:58:58.415Z,10.30
2019-04-03T08:01:29.982Z,8.90
2019-04-03T08:04:01.625Z,9.30
2019-04-03T08:06:35.867Z,8.67
2019-04-03T08:09:10.358Z,7.47
2019-04-03T08:11:42.133Z,8.23
2019-04-03T08:14:13.765Z,7.63
2019-04-03T08:16:45.944Z,7.70
2019-04-03T08:19:18.627Z,7.70
2019-04-03T08:21:50.277Z,8.37
2019-04-03T08:24:21.879Z,7.30
2019-04-03T08:26:53.540Z,6.97
2019-04-03T08:29:25.104Z,7.40
2019-04-03T08:31:56.912Z,7.03
2019-04-03T08:34:30.886Z,8.57
2019-04-03T08:37:02.346Z,8.30
2019-04-03T08:39:34.114Z,11.23
2019-04-03T08:42:05.751Z,7.80
2019-04-03T08:44:37.705Z,7.63
2019-04-03T08:47:09.303Z,7.90
2019-04-03T08:49:40.959Z,8.20
2019-04-03T08:52:14.568Z,8.00
2019-04-03T08:54:46.023Z,6.60
2019-04-03T08:57:20.524Z,7.60
2019-04-03T08:59:52.483Z,8.13
2019-04-03T09:02:24.109Z,7.40
2019-04-03T09:04:56.813Z,6.43
2019-04-03T09:07:28.394Z,6.93
2019-04-03T09:10:00.885Z,8.20
2019-04-03T09:12:34.008Z,8.27
2019-04-03T09:15:06.583Z,7.53
2019-04-03T09:17:38.193Z,12.47
2019-04-03T09:20:12.886Z,8.17
2019-04-03T09:22:43.583Z,8.30
2019-04-03T09:25:15.417Z,9.63
2019-04-03T09:27:46.974Z,10.50
2019-04-03T09:30:20.153Z,9.30
2019-04-03T09:32:53.196Z,10.10
2019-04-03T09:35:25.434Z,9.33
2019-04-03T09:37:57.129Z,9.30
2019-04-03T09:40:29.764Z,9.80
2019-04-03T09:43:01.363Z,12.70
2019-04-03T09:45:33.369Z,8.80
2019-04-03T09:48:06.088Z,9.30
2019-04-03T09:50:37.878Z,9.67
2019-04-03T09:53:11.911Z,9.80
2019-04-03T09:55:43.522Z,9.47
2019-04-03T09:58:15.090Z,9.03
2019-04-03T10:00:46.734Z,8.40
2019-04-03T10:03:18.449Z,8.83
2019-04-03T10:05:50.001Z,10.47
2019-04-03T10:08:21.608Z,9.10
2019-04-03T10:10:53.476Z,12.60
2019-04-03T10:13:26.313Z,10.40
2019-04-03T10:15:58.272Z,8.43
2019-04-03T10:18:29.906Z,11.20
2019-04-03T10:21:01.494Z,8.80
2019-04-03T10:23:33.233Z,8.13
2019-04-03T10:26:07.606Z,9.97
2019-04-03T10:28:42.140Z,11.13
2019-04-03T10:31:12.755Z,9.10
2019-04-03T10:33:45.471Z,7.60
2019-04-03T10:36:18.137Z,9.70
2019-04-03T10:38:50.209Z,9.17
2019-04-03T10:41:21.765Z,9.53
2019-04-03T10:43:53.355Z,8.90
2019-04-03T10:46:24.922Z,8.60
2019-04-03T10:48:59.556Z,9.63
2019-04-03T10:51:31.703Z,8.77
2019-04-03T10:54:03.221Z,7.00
2019-04-03T10:56:35.073Z,7.67
2019-04-03T10:59:11.808Z,10.00
2019-04-03T11:01:40.319Z,8.37
2019-04-03T11:04:12.158Z,7.03
2019-04-03T11:06:44.828Z,8.73
2019-04-03T11:09:16.731Z,6.97
2019-04-03T11:11:48.571Z,7.37
2019-04-03T11:14:20.144Z,6.60
2019-04-03T11:16:51.705Z,6.97
2019-04-03T11:19:23.567Z,6.70
2019-04-03T11:21:56.445Z,6.60
2019-04-03T11:24:29.331Z,6.67
2019-04-03T11:27:01.316Z,7.30
2019-04-03T11:29:33.166Z,7.47
2019-04-03T11:32:05.663Z,7.42
2019-04-03T11:34:38.579Z,7.07
2019-04-03T11:37:10.136Z,7.00
2019-04-03T11:39:42.185Z,7.40
2019-04-03T11:42:23.226Z,6.33
2019-04-03T11:44:47.126Z,7.67
2019-04-03T11:47:18.990Z,7.40
2019-04-03T11:49:52.436Z,8.13
2019-04-03T11:52:23.967Z,7.10
2019-04-03T11:54:55.683Z,8.73
2019-04-03T11:57:27.689Z,7.77
2019-04-03T11:59:59.403Z,11.90
2019-04-03T12:02:30.990Z,8.20
2019-04-03T12:05:02.613Z,7.83
2019-04-03T12:07:34.187Z,7.93
2019-04-03T12:10:06.635Z,8.10
2019-04-03T12:12:38.469Z,8.70
2019-04-03T12:15:10.917Z,7.87
2019-04-03T12:17:42.575Z,7.93
2019-04-03T12:20:16.326Z,7.20
2019-04-03T12:22:48.158Z,7.87
2019-04-03T12:25:19.960Z,8.17
2019-04-03T12:27:51.555Z,7.70
2019-04-03T12:30:26.384Z,7.83
2019-04-03T12:32:57.937Z,8.13
2019-04-03T12:35:29.691Z,8.47
2019-04-03T12:38:01.410Z,7.63
2019-04-03T12:40:33.627Z,7.90
2019-04-03T12:43:05.423Z,9.50
2019-04-03T12:45:37.040Z,8.10
2019-04-03T12:48:08.935Z,8.57
2019-04-03T12:50:40.501Z,8.93
2019-04-03T12:53:15.764Z,9.30
2019-04-03T12:55:46.602Z,8.50
2019-04-03T12:58:18.210Z,9.00
2019-04-03T13:00:50.313Z,9.50
2019-04-03T13:03:23.871Z,7.70
2019-04-03T13:05:55.218Z,8.83
2019-04-03T13:08:27.269Z,8.43
2019-04-03T13:10:58.920Z,8.30
2019-04-03T13:13:30.628Z,8.73
2019-04-03T13:16:02.327Z,7.60
2019-04-03T13:18:34.452Z,8.57
2019-04-03T13:21:06.297Z,8.60
2019-04-03T13:23:39.922Z,9.30
2019-04-03T13:26:11.705Z,9.03
2019-04-03T13:28:43.594Z,8.57
2019-04-03T13:31:15.871Z,8.03
2019-04-03T13:33:47.852Z,9.60
2019-04-03T13:36:19.822Z,9.30
2019-04-03T13:38:51.826Z,9.87
2019-04-03T13:41:23.640Z,9.13
2019-04-03T13:43:55.274Z,10.53
2019-04-03T13:46:26.909Z,9.10
2019-04-03T13:48:58.546Z,9.37
2019-04-03T13:51:30.176Z,10.97
2019-04-03T13:54:01.751Z,9.50
2019-04-03T13:56:33.685Z,9.97
2019-04-03T13:59:05.919Z,11.50
2019-04-03T14:01:39.493Z,10.50
2019-04-03T14:04:10.849Z,11.00
2019-04-03T14:06:43.492Z,12.00
2019-04-03T14:09:17.219Z,11.57
2019-04-03T14:11:48.438Z,11.50
2019-04-03T14:14:20.101Z,10.80
2019-04-03T14:16:51.719Z,11.20
2019-04-03T14:19:25.132Z,10.53
2019-04-03T14:21:58.847Z,11.20
2019-04-03T14:24:39.294Z,10.40
2019-04-03T14:27:03.604Z,11.40
2019-04-03T14:29:37.127Z,12.23
2019-04-03T14:32:09.179Z,11.93
2019-04-03T14:34:40.836Z,11.80
2019-04-03T14:37:12.464Z,12.33
2019-04-03T14:39:44.104Z,11.30
2019-04-03T14:42:15.711Z,12.20
2019-04-03T14:44:47.336Z,12.20
2019-04-03T14:47:21.760Z,12.37
2019-04-03T14:49:52.273Z,11.90
2019-04-03T14:52:24.023Z,12.17
2019-04-03T14:54:56.769Z,12.33
2019-04-03T14:57:29.046Z,12.47
2019-04-03T15:00:03.102Z,12.27
2019-04-03T15:02:34.828Z,12.20
2019-04-03T15:05:08.732Z,12.93
2019-04-03T15:07:40.637Z,11.90
2019-04-03T15:10:12.890Z,12.40
2019-04-03T15:12:44.574Z,11.37
2019-04-03T15:15:16.268Z,13.13
2019-04-03T15:17:47.838Z,11.10
2019-04-03T15:20:19.944Z,10.80
2019-04-03T15:22:51.713Z,11.63
2019-04-03T15:25:23.835Z,10.97
2019-04-03T15:27:55.524Z,11.40
2019-04-03T15:30:27.172Z,12.23
2019-04-03T15:32:59.228Z,10.77
2019-04-03T15:35:32.163Z,12.60
2019-04-03T15:38:04.209Z,12.07
2019-04-03T15:40:36.257Z,13.80
2019-04-03T15:43:10.397Z,13.07
2019-04-03T15:45:41.164Z,12.20
2019-04-03T15:48:12.779Z,13.00
2019-04-03T15:50:44.494Z,12.27
2019-04-03T15:53:16.083Z,11.93
2019-04-03T15:55:48.028Z,11.80
2019-04-03T15:58:19.657Z,12.87
2019-04-03T16:00:51.486Z,17.90
2019-04-03T16:03:23.111Z,14.27
2019-04-03T16:05:54.726Z,11.17
2019-04-03T16:08:26.521Z,7.80
2019-04-03T16:10:58.880Z,6.87
2019-04-03T16:13:30.679Z,3.20
2019-04-03T16:16:03.839Z,3.30
2019-04-03T16:18:36.204Z,4.33
2019-04-03T16:21:08.936Z,5.87
2019-04-03T16:23:40.961Z,2.80
2019-04-03T16:26:12.608Z,1.90
2019-04-03T16:28:44.257Z,2.00
2019-04-03T16:31:16.037Z,1.80
2019-04-03T16:33:47.866Z,1.83
2019-04-03T16:36:19.817Z,1.83
2019-04-03T16:38:51.690Z,5.43
2019-04-03T16:41:23.417Z,2.43
2019-04-03T16:43:55.268Z,3.03
2019-04-03T16:46:26.937Z,1.97
2019-04-03T16:48:58.802Z,1.63
2019-04-03T16:51:31.724Z,2.23
2019-04-03T16:54:03.681Z,1.80
2019-04-03T16:56:38.136Z,3.10
2019-04-03T16:59:08.667Z,7.80
2019-04-03T17:01:40.238Z,3.87
2019-04-03T17:04:23.831Z,2.50
2019-04-03T17:06:47.582Z,7.43
2019-04-03T17:09:18.973Z,2.17
2019-04-03T17:11:51.157Z,2.20
2019-04-03T17:14:24.422Z,2.30
2019-04-03T17:16:56.216Z,3.40
2019-04-03T17:19:28.261Z,2.70
2019-04-03T17:21:59.830Z,2.10
2019-04-03T17:24:40.832Z,4.27
2019-04-03T17:27:04.731Z,2.87
2019-04-03T17:29:36.330Z,3.50
2019-04-03T17:32:08.995Z,2.37
2019-04-03T17:34:43.887Z,2.93
2019-04-03T17:37:18.650Z,3.10
2019-04-03T17:39:49.006Z,3.37
2019-04-03T17:42:20.648Z,3.37
2019-04-03T17:44:52.240Z,3.70
2019-04-03T17:47:23.847Z,3.77
2019-04-03T17:49:55.512Z,5.17
2019-04-03T17:52:27.094Z,4.43
2019-04-03T17:54:58.763Z,3.73
2019-04-03T17:57:30.355Z,3.63
2019-04-03T18:00:03.374Z,3.83
2019-04-03T18:02:37.149Z,5.40
2019-04-03T18:05:10.087Z,4.47
2019-04-03T18:07:41.736Z,5.57
2019-04-03T18:10:15.995Z,3.07
2019-04-03T18:12:47.650Z,8.43
2019-04-03T18:15:20.919Z,5.07
2019-04-03T18:17:52.537Z,14.17
2019-04-03T18:20:24.115Z,4.07
2019-04-03T18:22:55.735Z,4.03
2019-04-03T18:25:28.888Z,4.27
2019-04-03T18:28:00.667Z,5.53
2019-04-03T18:30:32.258Z,3.50
2019-04-03T18:33:05.775Z,4.93
2019-04-03T18:35:37.212Z,3.00
2019-04-03T18:38:08.784Z,2.90
2019-04-03T18:40:40.411Z,4.03
2019-04-03T18:43:12.020Z,2.50
2019-04-03T18:45:43.649Z,2.50
2019-04-03T18:48:16.596Z,9.50
2019-04-03T18:50:48.729Z,5.60
2019-04-03T18:53:20.298Z,3.60
2019-04-03T18:55:51.892Z,4.20
2019-04-03T18:58:23.821Z,2.90
2019-04-03T19:00:56.013Z,3.30
2019-04-03T19:03:27.660Z,2.97
2019-04-03T19:05:59.979Z,2.87
2019-04-03T19:08:31.743Z,4.20
2019-04-03T19:11:09.351Z,3.20
2019-04-03T19:13:37.079Z,3.33
2019-04-03T19:16:09.070Z,3.10
2019-04-03T19:18:40.797Z,2.97
2019-04-03T19:21:24.090Z,3.40
2019-04-03T19:23:49.846Z,3.60
2019-04-03T19:26:19.067Z,3.20
2019-04-03T19:28:50.638Z,5.43
2019-04-03T19:31:22.266Z,5.37
2019-04-03T19:33:53.915Z,5.37
2019-04-03T19:36:29.652Z,4.87
2019-04-03T19:38:59.939Z,4.20
2019-04-03T19:41:31.565Z,4.03
2019-04-03T19:44:03.165Z,3.50
2019-04-03T19:46:34.811Z,4.37
2019-04-03T19:49:06.703Z,3.80
2019-04-03T19:51:38.317Z,4.37
2019-04-03T19:54:11.682Z,4.80
2019-04-03T19:56:44.369Z,4.30
2019-04-03T19:59:17.507Z,5.47
2019-04-03T20:01:49.181Z,4.07
2019-04-03T20:04:20.819Z,4.83
2019-04-03T20:06:52.922Z,4.83
2019-04-03T20:09:25.764Z,5.10
2019-04-03T20:11:59.092Z,5.50
2019-04-03T20:14:30.697Z,5.57
2019-04-03T20:17:02.263Z,5.23
2019-04-03T20:19:33.975Z,5.60
2019-04-03T20:22:07.085Z,6.60
2019-04-03T20:24:38.965Z,6.40
2019-04-03T20:27:12.365Z,6.83
2019-04-03T20:29:44.005Z,6.67
2019-04-03T20:32:15.619Z,7.03
2019-04-03T20:34:47.223Z,6.80
2019-04-03T20:37:18.867Z,8.67
2019-04-03T20:39:50.718Z,8.53
2019-04-03T20:42:22.346Z,9.63
2019-04-03T20:44:53.965Z,7.63
2019-04-03T20:47:26.888Z,7.20
2019-04-03T20:49:58.883Z,5.60
2019-04-03T20:52:31.514Z,6.03
2019-04-03T20:55:03.130Z,6.17
2019-04-03T20:57:34.743Z,6.33
2019-04-03T21:00:11.846Z,6.10
2019-04-03T21:02:43.809Z,7.07
2019-04-03T21:05:17.833Z,6.20
2019-04-03T21:07:48.968Z,6.80
2019-04-03T21:10:20.610Z,6.93
2019-04-03T21:12:52.190Z,5.93
2019-04-03T21:15:23.771Z,6.77
2019-04-03T21:17:55.376Z,6.90
2019-04-03T21:20:26.994Z,6.43
2019-04-03T21:22:58.593Z,6.17
2019-04-03T21:25:31.278Z,5.73
2019-04-03T21:28:02.851Z,6.20
2019-04-03T21:30:34.526Z,6.20
2019-04-03T21:33:06.131Z,5.53
2019-04-03T21:35:37.778Z,5.37
2019-04-03T21:38:10.847Z,4.83
2019-04-03T21:40:42.626Z,5.23
2019-04-03T21:43:14.199Z,3.57
2019-04-03T21:45:45.756Z,4.33
2019-04-03T21:48:17.373Z,4.80
2019-04-03T21:50:49.777Z,4.03
2019-04-03T21:53:24.195Z,3.37
2019-04-03T21:55:55.257Z,3.70
2019-04-03T21:58:26.854Z,3.80
2019-04-03T22:01:23.486Z,4.00
2019-04-03T22:03:55.076Z,4.43
2019-04-03T22:06:27.711Z,3.70
2019-04-03T22:09:00.582Z,4.07
2019-04-03T22:11:35.564Z,4.43
2019-04-03T22:14:10.687Z,4.30
2019-04-03T22:16:40.930Z,4.33
2019-04-03T22:19:12.546Z,4.50
2019-04-03T22:21:44.118Z,4.07
2019-04-03T22:24:15.708Z,3.90
2019-04-03T22:26:47.289Z,4.10
2019-04-03T22:29:20.458Z,7.00
2019-04-03T22:31:54.430Z,4.37
2019-04-03T22:34:25.505Z,4.87
2019-04-03T22:36:57.068Z,4.27
2019-04-03T22:39:28.685Z,4.13
2019-04-03T22:42:00.268Z,4.20
2019-04-03T22:44:31.866Z,4.63
2019-04-03T22:47:03.411Z,3.97
2019-04-03T22:49:35.051Z,4.03
2019-04-03T22:52:06.876Z,4.87
2019-04-03T22:54:39.907Z,4.03
2019-04-03T22:57:11.514Z,4.40
2019-04-03T22:59:44.134Z,4.50
2019-04-03T23:02:15.654Z,4.17
2019-04-03T23:04:47.213Z,3.77
2019-04-03T23:07:20.838Z,4.60
2019-04-03T23:09:52.114Z,4.30
2019-04-03T23:12:23.688Z,4.37
2019-04-03T23:14:55.263Z,4.40
2019-04-03T23:17:26.788Z,4.60
2019-04-03T23:19:58.418Z,4.23
2019-04-03T23:22:29.963Z,3.93
2019-04-03T23:25:01.550Z,4.43
2019-04-03T23:27:33.525Z,7.97
2019-04-03T23:30:05.452Z,6.53
2019-04-03T23:32:37.042Z,5.80
2019-04-03T23:35:08.723Z,6.13
2019-04-03T23:37:40.309Z,5.13
2019-04-03T23:40:12.371Z,4.93
2019-04-03T23:42:43.936Z,5.60
2019-04-03T23:45:16.644Z,5.17
2019-04-03T23:47:48.228Z,5.37
2019-04-03T23:50:21.650Z,5.60
2019-04-03T23:52:53.164Z,5.20
2019-04-03T23:55:24.721Z,5.40
2019-04-03T23:57:56.296Z,5.80
